CheckWX is a tool to help pilots better visualize weather data.  It is not intended as a substitute for an official pre-flight weather briefing.

01:18:51 UTC

KABE METAR
Lehigh Valley International Airport
Allentown, Pennsylvania, USA
Current

28 mins ago

KABE 200051Z 24008KT 10SM CLR 31/24 A2987 RMK AO2 SLP110 T03110239
Observed
Jul-20 @ 00:51 UTC
Wind
  • 240° at 8 KTS
Visibility
10 SM
Flight Rules
VFR
Cloud Levels
  • Clear skies
Temperature
31°C / 88°F
Dewpoint
24°C / 75°F
Heat Index
37°C / 98°F
Humidity
66%
Altimeter
29.87" Hg
Pressure
1011.52 hPa
Previous

1 hour ago

KABE 192351Z 25008KT 10SM CLR 32/24 A2987 RMK AO2 SLP112 T03170239 10339 20317 53004
Observed
Jul-19 @ 23:51 UTC
Wind
  • 250° at 8 KTS
Visibility
10 SM
Flight Rules
VFR
Cloud Levels
  • Clear skies
Temperature
32°C / 90°F
Dewpoint
24°C / 75°F
Heat Index
38°C / 101°F
Humidity
63%
Altimeter
29.87" Hg
Pressure
1011.52 hPa
Previous

2 hours ago

KABE 192251Z 25008KT 10SM CLR 33/24 A2986 RMK AO2 SLP107 T03280239
Observed
Jul-19 @ 22:51 UTC
Wind
  • 250° at 8 KTS
Visibility
10 SM
Flight Rules
VFR
Cloud Levels
  • Clear skies
Temperature
33°C / 91°F
Dewpoint
24°C / 75°F
Heat Index
39°C / 102°F
Humidity
59%
Altimeter
29.86" Hg
Pressure
1011.22 hPa